createdAt,value
2018-07-19T00:01:18.631Z,19.60
2018-07-19T00:06:21.608Z,19.60
2018-07-19T00:11:24.592Z,19.60
2018-07-19T00:16:27.584Z,19.40
2018-07-19T00:21:30.563Z,19.40
2018-07-19T00:26:33.547Z,19.40
2018-07-19T00:31:36.511Z,19.20
2018-07-19T00:36:39.491Z,19.20
2018-07-19T00:41:44.807Z,19.40
2018-07-19T00:46:47.767Z,19.30
2018-07-19T00:51:50.794Z,19.20
2018-07-19T00:56:53.781Z,19.10
2018-07-19T01:01:56.760Z,19.10
2018-07-19T01:06:59.751Z,18.90
2018-07-19T01:12:02.844Z,18.80
2018-07-19T01:17:06.055Z,18.70
2018-07-19T01:22:09.100Z,18.70
2018-07-19T01:27:12.088Z,18.60
2018-07-19T01:32:15.055Z,18.60
2018-07-19T01:37:18.034Z,18.60
2018-07-19T01:42:35.374Z,18.50
2018-07-19T01:47:38.603Z,18.50
2018-07-19T01:52:41.584Z,18.40
2018-07-19T01:57:44.591Z,18.30
2018-07-19T02:02:47.905Z,18.40
2018-07-19T02:07:50.940Z,18.20
2018-07-19T02:12:53.991Z,18.10
2018-07-19T02:17:56.967Z,18.10
2018-07-19T02:22:59.954Z,18.00
2018-07-19T02:28:02.912Z,18.00
2018-07-19T02:33:05.909Z,17.70
2018-07-19T02:38:08.863Z,17.70
2018-07-19T02:43:11.832Z,17.60
2018-07-19T02:48:14.800Z,17.40
2018-07-19T02:53:17.808Z,17.30
2018-07-19T02:58:20.844Z,17.30
2018-07-19T03:03:23.874Z,17.20
2018-07-19T03:08:26.887Z,16.90
2018-07-19T03:13:29.900Z,16.60
2018-07-19T03:18:33.075Z,16.40
2018-07-19T03:23:36.061Z,16.50
2018-07-19T03:28:39.083Z,16.50
2018-07-19T03:33:42.056Z,16.60
2018-07-19T03:43:48.103Z,16.80
2018-07-19T03:48:51.063Z,17.00
2018-07-19T03:53:54.091Z,16.90
2018-07-19T03:58:57.085Z,17.10
2018-07-19T04:04:00.056Z,17.00
2018-07-19T04:09:04.919Z,17.10
2018-07-19T04:14:07.925Z,17.20
2018-07-19T04:19:10.875Z,17.20
2018-07-19T04:24:13.856Z,17.30
2018-07-19T04:29:16.844Z,17.30
2018-07-19T04:34:19.929Z,17.50
2018-07-19T04:39:22.876Z,17.90
2018-07-19T04:44:25.876Z,19.20
2018-07-19T04:49:30.244Z,20.60
2018-07-19T04:54:33.307Z,21.20
2018-07-19T04:59:36.379Z,22.00
2018-07-19T05:04:39.423Z,22.30
2018-07-19T05:09:42.712Z,22.80
2018-07-19T05:14:45.864Z,23.00
2018-07-19T05:19:48.916Z,23.20
2018-07-19T05:24:51.917Z,23.60
2018-07-19T05:29:54.954Z,23.80
2018-07-19T05:34:58.000Z,24.40
2018-07-19T05:40:01.148Z,24.10
2018-07-19T05:45:04.580Z,24.20
2018-07-19T05:50:07.616Z,24.50
2018-07-19T05:55:10.648Z,24.40
2018-07-19T06:00:13.688Z,24.70
2018-07-19T06:10:19.763Z,25.50
2018-07-19T06:15:22.795Z,25.40
2018-07-19T06:20:25.810Z,25.80
2018-07-19T06:25:29.075Z,25.70
2018-07-19T06:30:32.116Z,26.40
2018-07-19T06:35:35.143Z,26.00
2018-07-19T06:40:38.192Z,26.00
2018-07-19T06:45:41.493Z,25.60
2018-07-19T06:50:44.718Z,25.70
2018-07-19T06:55:47.756Z,25.40
2018-07-19T07:00:50.843Z,25.90
2018-07-19T07:05:53.963Z,26.60
2018-07-19T07:10:56.999Z,27.40
2018-07-19T07:16:00.029Z,27.10
2018-07-19T07:21:03.137Z,26.50
2018-07-19T07:26:06.193Z,26.90
2018-07-19T07:31:09.848Z,26.70
2018-07-19T07:36:12.916Z,27.40
2018-07-19T07:41:15.989Z,27.60
2018-07-19T07:46:19.019Z,27.30
2018-07-19T07:51:22.055Z,27.40
2018-07-19T07:56:25.064Z,28.20
2018-07-19T08:01:28.191Z,28.00
2018-07-19T08:06:31.203Z,27.40
2018-07-19T08:11:34.342Z,27.10
2018-07-19T08:16:37.433Z,26.80
2018-07-19T08:21:40.462Z,27.00
2018-07-19T08:26:43.629Z,27.30
2018-07-19T08:31:46.680Z,27.00
2018-07-19T08:36:49.772Z,27.30
2018-07-19T08:41:52.862Z,28.10
2018-07-19T08:46:55.856Z,27.50
2018-07-19T08:51:58.940Z,27.40
2018-07-19T08:57:02.024Z,27.50
2018-07-19T09:02:05.175Z,27.50
2018-07-19T09:07:08.248Z,27.70
2018-07-19T09:12:11.286Z,27.30
2018-07-19T09:17:14.349Z,27.90
2018-07-19T09:22:17.532Z,27.40
2018-07-19T09:27:21.200Z,28.20
2018-07-19T09:32:24.471Z,27.90
2018-07-19T09:37:27.923Z,27.60
2018-07-19T09:42:30.872Z,27.50
2018-07-19T09:47:33.956Z,27.90
2018-07-19T09:52:36.924Z,27.40
2018-07-19T09:57:39.935Z,27.70
2018-07-19T10:02:42.923Z,28.30
2018-07-19T10:07:45.978Z,28.00
2018-07-19T10:12:49.069Z,28.00
2018-07-19T10:17:52.047Z,27.90
2018-07-19T10:22:55.006Z,27.20
2018-07-19T10:27:57.991Z,27.90
2018-07-19T10:33:01.036Z,28.10
2018-07-19T10:38:04.042Z,27.50
2018-07-19T10:43:07.493Z,27.30
2018-07-19T10:48:10.515Z,27.50
2018-07-19T10:53:13.469Z,27.70
2018-07-19T10:58:16.445Z,28.20
2018-07-19T11:03:19.506Z,27.50
2018-07-19T11:08:22.487Z,27.70
2018-07-19T11:13:25.545Z,28.30
2018-07-19T11:18:28.470Z,28.40
2018-07-19T11:23:32.322Z,28.40
2018-07-19T11:28:35.325Z,28.30
2018-07-19T11:33:38.323Z,28.00
2018-07-19T11:38:41.253Z,27.70
2018-07-19T11:43:44.199Z,27.80
2018-07-19T11:48:47.172Z,28.10
2018-07-19T11:53:50.191Z,27.90
2018-07-19T11:58:53.117Z,28.00
2018-07-19T12:03:56.093Z,28.20
2018-07-19T12:08:59.102Z,27.80
2018-07-19T12:14:02.132Z,28.00
2018-07-19T12:19:05.782Z,28.20
2018-07-19T12:24:08.895Z,27.90
2018-07-19T12:29:11.883Z,28.30
2018-07-19T12:34:14.871Z,28.40
2018-07-19T12:39:17.869Z,27.90
2018-07-19T12:44:21.064Z,28.10
2018-07-19T12:54:27.910Z,28.20
2018-07-19T12:59:31.105Z,28.20
2018-07-19T13:04:34.159Z,28.50
2018-07-19T13:09:37.160Z,28.50
2018-07-19T13:14:41.464Z,28.50
2018-07-19T13:19:44.680Z,28.50
2018-07-19T13:24:48.223Z,28.50
2018-07-19T13:29:51.433Z,28.80
2018-07-19T13:34:54.419Z,28.40
2018-07-19T13:39:57.462Z,28.60
2018-07-19T13:45:00.440Z,28.90
2018-07-19T13:50:03.848Z,28.60
2018-07-19T13:55:06.895Z,28.60
2018-07-19T14:00:09.973Z,28.60
2018-07-19T14:05:12.971Z,28.50
2018-07-19T14:10:15.922Z,28.60
2018-07-19T14:15:18.889Z,30.00
2018-07-19T14:20:21.847Z,29.30
2018-07-19T14:25:24.776Z,29.20
2018-07-19T14:30:27.719Z,29.00
2018-07-19T14:35:30.673Z,28.80
2018-07-19T14:40:33.671Z,29.10
2018-07-19T14:45:36.655Z,29.00
2018-07-19T14:50:39.552Z,29.00
2018-07-19T15:00:45.421Z,29.20
2018-07-19T15:05:48.371Z,29.20
2018-07-19T15:10:51.319Z,29.40
2018-07-19T15:15:54.317Z,29.00
2018-07-19T15:20:57.300Z,29.10
2018-07-19T15:26:00.311Z,29.20
2018-07-19T15:31:03.323Z,29.00
2018-07-19T15:36:06.356Z,29.10
2018-07-19T15:41:09.347Z,29.00
2018-07-19T15:46:12.299Z,29.20
2018-07-19T15:51:15.338Z,29.10
2018-07-19T15:56:18.316Z,29.30
2018-07-19T16:01:21.336Z,29.50
2018-07-19T16:06:24.336Z,28.90
2018-07-19T16:11:27.307Z,29.00
2018-07-19T16:16:30.308Z,29.10
2018-07-19T16:21:33.283Z,29.20
2018-07-19T16:26:36.224Z,29.10
2018-07-19T16:31:39.170Z,29.00
2018-07-19T16:36:42.124Z,28.80
2018-07-19T16:41:45.136Z,28.80
2018-07-19T16:46:48.109Z,28.80
2018-07-19T16:51:51.183Z,28.80
2018-07-19T16:56:54.249Z,28.70
2018-07-19T17:01:57.280Z,28.80
2018-07-19T17:07:00.336Z,28.10
2018-07-19T17:12:03.395Z,28.10
2018-07-19T17:17:06.615Z,28.00
2018-07-19T17:22:09.665Z,27.80
2018-07-19T17:27:12.742Z,27.70
2018-07-19T17:32:16.015Z,27.80
2018-07-19T17:37:19.033Z,27.80
2018-07-19T17:42:22.145Z,27.90
2018-07-19T17:47:25.239Z,27.90
2018-07-19T17:52:28.285Z,27.80
2018-07-19T17:57:31.345Z,27.80
2018-07-19T18:02:34.396Z,27.70
2018-07-19T18:07:37.419Z,27.60
2018-07-19T18:12:40.456Z,27.40
2018-07-19T18:17:43.493Z,27.10
2018-07-19T18:22:46.738Z,26.90
2018-07-19T18:27:49.810Z,26.70
2018-07-19T18:32:52.881Z,26.60
2018-07-19T18:37:55.980Z,26.30
2018-07-19T18:42:59.009Z,26.10
2018-07-19T18:48:02.135Z,26.00
2018-07-19T18:53:05.173Z,25.80
2018-07-19T19:03:11.667Z,25.60
2018-07-19T19:08:14.690Z,25.40
2018-07-19T19:13:18.001Z,25.30
2018-07-19T19:18:21.441Z,25.10
2018-07-19T19:23:24.531Z,24.90
2018-07-19T19:28:27.638Z,24.60
2018-07-19T19:33:30.585Z,24.40
2018-07-19T19:38:33.626Z,24.50
2018-07-19T19:48:39.716Z,24.00
2018-07-19T19:53:43.004Z,23.70
2018-07-19T19:58:46.003Z,23.50
2018-07-19T20:03:48.908Z,23.20
2018-07-19T20:08:51.916Z,23.00
2018-07-19T20:13:55.009Z,22.80
2018-07-19T20:18:58.270Z,22.40
2018-07-19T20:24:01.582Z,22.40
2018-07-19T20:29:04.576Z,22.10
2018-07-19T20:34:07.901Z,22.30
2018-07-19T20:39:10.980Z,22.50
2018-07-19T20:44:14.125Z,22.50
2018-07-19T20:49:17.277Z,22.50
2018-07-19T20:54:20.512Z,22.50
2018-07-19T20:59:23.508Z,22.20
2018-07-19T21:04:26.544Z,21.70
2018-07-19T21:09:29.820Z,21.30
2018-07-19T21:14:32.831Z,21.20
2018-07-19T21:19:35.828Z,21.30
2018-07-19T21:24:39.240Z,21.10
2018-07-19T21:29:42.304Z,20.70
2018-07-19T21:34:45.320Z,20.50
2018-07-19T21:39:48.295Z,20.30
2018-07-19T21:44:51.381Z,20.40
2018-07-19T21:49:54.373Z,20.20
2018-07-19T21:54:57.394Z,19.90
2018-07-19T22:00:00.450Z,19.70
2018-07-19T22:05:03.567Z,19.70
2018-07-19T22:10:06.603Z,19.80
2018-07-19T22:15:10.069Z,19.40
2018-07-19T22:20:13.094Z,19.50
2018-07-19T22:25:16.083Z,19.20
2018-07-19T22:30:19.061Z,19.30
2018-07-19T22:35:22.037Z,19.50
2018-07-19T22:40:25.063Z,18.90
2018-07-19T22:45:28.072Z,18.80
2018-07-19T22:50:31.240Z,19.00
2018-07-19T22:55:34.243Z,19.00
2018-07-19T23:00:37.231Z,19.10
2018-07-19T23:05:40.205Z,19.30
2018-07-19T23:10:43.184Z,19.20
2018-07-19T23:15:46.567Z,19.20
2018-07-19T23:20:49.628Z,18.90
2018-07-19T23:25:52.835Z,18.50
2018-07-19T23:30:55.870Z,18.40
2018-07-19T23:36:33.110Z,18.10
2018-07-19T23:41:49.016Z,18.30
2018-07-19T23:46:56.823Z,18.40
2018-07-19T23:51:59.827Z,18.60
2018-07-19T23:57:02.791Z,18.70
